Airfield :







YOU CAN JOIN US ON...

 
LOGIN :

Register | Disclaimer

   EN    FR    IT 

 









Legend :    VFR   Marginal VFR   IFR   Intensive IFR   Very Intensive IFR
Visi :
Ceiling :
>= 8 km
>= 3000ft
5 to 8 km
1000 to 3000 ft
1500m to 5 km
500 to 1000 ft
800 to 1500m
200 to 500 ft
< 800m
< 200 ft
Symbols :   Thunderstorms  Fog  Heavy snow  Heavy precipitations  Wind > 20 kt







- Airport Elevation : 215 ft
- IATA code : MSS


KMSS - Massena International Richards Field

CURRENT METAR :
  • 190153Z AUTO 00000KT 10SM CLR 08/07 A3033 RMK AO2 SLP271 T00830067

EXPIRED METARs :
  • 190053Z AUTO 00000KT 10SM CLR 09/07 A3032 RMK AO2 SLP271 T00940067
  • 182353Z AUTO 00000KT 10SM CLR 13/08 A3032 RMK AO2 SLP269 T01280078 10200 20111 53002
  • 182253Z AUTO 03005KT 10SM CLR 15/08 A3031 RMK AO2 SLP268 T01500083

TAF KMSS
Valid from the 19 at 00:00 until the 20 at 00:00 UTC


182320Z 1900/1924 VRB02KT P6SM SKC
FM191400 23005KT P6SM SCT250
No reported NOTAMs for that airfield.



MET'MAP, your aeronautical weather chart ! - Copyright ORBIFLY December 2007 - Disclaimer

ORBIFLY MET'MAP TEAM :

Programming & Development : Alexandra Zaïnal
Concept & Development : Baudouin d'Aumeries
Co-Development & Prog : Marc-Olivier Méhu
Technical & hardware support : Manuel Goepfert

Contact : metmap@orbifly.com




SOURCES & CREDITS :

   NOAA